createdAt,value
2019-03-22T00:01:15.258Z,61.40
2019-03-22T00:03:42.889Z,61.00
2019-03-22T00:06:10.900Z,61.20
2019-03-22T00:08:38.823Z,61.20
2019-03-22T00:11:06.916Z,61.50
2019-03-22T00:13:34.760Z,61.80
2019-03-22T00:16:03.895Z,61.40
2019-03-22T00:18:32.155Z,61.40
2019-03-22T00:20:59.548Z,61.50
2019-03-22T00:23:28.728Z,61.70
2019-03-22T00:25:56.568Z,61.90
2019-03-22T00:28:24.093Z,61.90
2019-03-22T00:30:52.727Z,61.80
2019-03-22T00:33:20.386Z,62.00
2019-03-22T00:35:47.972Z,62.40
2019-03-22T00:38:16.669Z,62.40
2019-03-22T00:40:44.175Z,62.60
2019-03-22T00:43:13.355Z,62.80
2019-03-22T00:45:40.908Z,63.00
2019-03-22T00:48:10.635Z,63.20
2019-03-22T00:50:38.027Z,63.00
2019-03-22T00:53:05.432Z,63.10
2019-03-22T00:55:33.595Z,63.40
2019-03-22T00:58:01.255Z,64.20
2019-03-22T01:00:29.463Z,64.40
2019-03-22T01:02:58.767Z,63.90
2019-03-22T01:05:28.220Z,63.70
2019-03-22T01:07:56.311Z,63.70
2019-03-22T01:10:24.551Z,63.80
2019-03-22T01:12:52.883Z,64.60
2019-03-22T01:15:21.305Z,64.70
2019-03-22T01:17:49.235Z,64.50
2019-03-22T01:20:16.847Z,65.20
2019-03-22T01:22:45.687Z,64.40
2019-03-22T01:25:13.399Z,64.50
2019-03-22T01:27:42.450Z,64.30
2019-03-22T01:30:12.669Z,64.60
2019-03-22T01:32:41.603Z,64.70
2019-03-22T01:35:10.772Z,64.90
2019-03-22T01:37:38.411Z,64.80
2019-03-22T01:40:09.155Z,65.30
2019-03-22T01:42:36.903Z,65.00
2019-03-22T01:45:06.291Z,65.30
2019-03-22T01:47:34.188Z,65.20
2019-03-22T01:50:02.238Z,65.10
2019-03-22T01:52:30.627Z,64.80
2019-03-22T01:54:59.123Z,64.80
2019-03-22T01:57:28.177Z,65.20
2019-03-22T01:59:55.676Z,65.50
2019-03-22T02:02:23.735Z,65.30
2019-03-22T02:04:53.027Z,65.30
2019-03-22T02:07:21.311Z,65.40
2019-03-22T02:09:50.347Z,65.40
2019-03-22T02:12:18.003Z,65.30
2019-03-22T02:14:46.247Z,65.20
2019-03-22T02:17:14.287Z,65.50
2019-03-22T02:19:42.702Z,65.70
2019-03-22T02:22:10.287Z,65.50
2019-03-22T02:24:38.343Z,65.30
2019-03-22T02:27:08.039Z,65.50
2019-03-22T02:29:35.779Z,65.70
2019-03-22T02:32:03.706Z,65.80
2019-03-22T02:34:31.364Z,66.00
2019-03-22T02:36:59.796Z,65.80
2019-03-22T02:39:27.619Z,65.90
2019-03-22T02:41:55.380Z,65.60
2019-03-22T02:44:23.297Z,65.70
2019-03-22T02:46:52.131Z,66.00
2019-03-22T02:49:20.041Z,65.90
2019-03-22T02:51:47.705Z,66.00
2019-03-22T02:54:16.897Z,66.00
2019-03-22T02:56:44.431Z,66.20
2019-03-22T02:59:13.301Z,66.00
2019-03-22T03:01:42.305Z,66.30
2019-03-22T03:04:10.440Z,66.40
2019-03-22T03:06:38.049Z,66.20
2019-03-22T03:09:06.448Z,66.10
2019-03-22T03:11:35.668Z,66.10
2019-03-22T03:14:03.598Z,66.40
2019-03-22T03:16:31.825Z,66.30
2019-03-22T03:18:59.625Z,66.50
2019-03-22T03:21:28.763Z,66.60
2019-03-22T03:23:56.314Z,66.30
2019-03-22T03:26:24.601Z,66.40
2019-03-22T03:28:52.988Z,66.20
2019-03-22T03:31:21.023Z,66.60
2019-03-22T03:33:48.853Z,66.50
2019-03-22T03:36:17.616Z,66.50
2019-03-22T03:38:46.204Z,66.50
2019-03-22T03:41:13.842Z,66.40
2019-03-22T03:43:41.837Z,66.50
2019-03-22T03:46:10.353Z,66.50
2019-03-22T03:48:37.903Z,66.50
2019-03-22T03:51:05.814Z,66.40
2019-03-22T03:53:33.981Z,66.50
2019-03-22T03:56:01.420Z,66.80
2019-03-22T03:58:29.665Z,66.70
2019-03-22T04:00:57.885Z,66.80
2019-03-22T04:03:25.869Z,66.70
2019-03-22T04:05:53.564Z,66.80
2019-03-22T04:08:22.423Z,66.70
2019-03-22T04:10:50.998Z,66.70
2019-03-22T04:13:18.588Z,67.00
2019-03-22T04:15:47.299Z,67.20
2019-03-22T04:18:15.779Z,67.00
2019-03-22T04:20:44.621Z,66.90
2019-03-22T04:23:12.106Z,66.90
2019-03-22T04:25:39.636Z,67.30
2019-03-22T04:28:08.564Z,67.50
2019-03-22T04:30:36.673Z,67.40
2019-03-22T04:33:06.558Z,67.40
2019-03-22T04:35:35.404Z,67.60
2019-03-22T04:38:03.305Z,67.60
2019-03-22T04:40:32.461Z,67.50
2019-03-22T04:43:01.479Z,67.40
2019-03-22T04:45:30.564Z,67.40
2019-03-22T04:48:10.903Z,67.20
2019-03-22T04:50:41.615Z,67.40
2019-03-22T04:53:14.383Z,67.90
2019-03-22T04:55:44.479Z,68.00
2019-03-22T04:58:13.556Z,68.10
2019-03-22T05:00:42.596Z,67.70
2019-03-22T05:03:11.847Z,67.70
2019-03-22T05:05:39.947Z,68.00
2019-03-22T05:08:08.712Z,68.10
2019-03-22T05:10:37.251Z,68.10
2019-03-22T05:13:07.980Z,68.20
2019-03-22T05:15:37.958Z,69.00
2019-03-22T05:18:07.371Z,68.40
2019-03-22T05:20:37.263Z,68.10
2019-03-22T05:23:06.699Z,68.00
2019-03-22T05:25:36.052Z,68.00
2019-03-22T05:28:08.456Z,68.30
2019-03-22T05:31:08.696Z,68.30
2019-03-22T05:33:36.743Z,68.50
2019-03-22T05:36:04.939Z,68.60
2019-03-22T05:38:34.489Z,68.80
2019-03-22T05:41:03.879Z,70.10
2019-03-22T05:43:31.395Z,70.40
2019-03-22T05:45:59.403Z,69.20
2019-03-22T05:48:27.036Z,68.70
2019-03-22T05:50:56.167Z,68.80
2019-03-22T05:53:24.206Z,68.70
2019-03-22T05:55:53.095Z,69.00
2019-03-22T05:58:21.051Z,68.80
2019-03-22T06:00:48.815Z,69.00
2019-03-22T06:03:16.497Z,69.10
2019-03-22T06:05:46.023Z,69.30
2019-03-22T06:08:14.169Z,69.50
2019-03-22T06:10:41.687Z,69.70
2019-03-22T06:13:09.226Z,69.70
2019-03-22T06:15:36.913Z,69.90
2019-03-22T06:18:04.728Z,70.10
2019-03-22T06:20:33.812Z,70.30
2019-03-22T06:23:01.303Z,70.20
2019-03-22T06:25:28.760Z,70.10
2019-03-22T06:27:56.284Z,70.20
2019-03-22T06:30:24.987Z,70.30
2019-03-22T06:32:53.624Z,70.50
2019-03-22T06:35:21.136Z,70.40
2019-03-22T06:37:50.096Z,70.80
2019-03-22T06:40:18.035Z,70.90
2019-03-22T06:42:45.910Z,71.00
2019-03-22T06:45:13.533Z,71.20
2019-03-22T06:47:41.070Z,71.70
2019-03-22T06:50:10.527Z,71.80
2019-03-22T06:52:38.200Z,72.00
2019-03-22T06:55:07.115Z,71.80
2019-03-22T06:57:35.968Z,71.80
2019-03-22T07:00:06.862Z,71.80
2019-03-22T07:02:35.126Z,71.90
2019-03-22T07:05:04.107Z,72.00
2019-03-22T07:07:32.236Z,72.50
2019-03-22T07:10:01.220Z,72.20
2019-03-22T07:12:29.739Z,72.50
2019-03-22T07:14:57.787Z,72.70
2019-03-22T07:17:25.827Z,72.80
2019-03-22T07:19:53.795Z,72.80
2019-03-22T07:22:21.447Z,72.80
2019-03-22T07:24:50.329Z,72.60
2019-03-22T07:27:19.466Z,73.00
2019-03-22T07:29:48.526Z,73.20
2019-03-22T07:32:17.098Z,73.00
2019-03-22T07:34:45.452Z,72.40
2019-03-22T07:37:14.323Z,71.70
2019-03-22T07:39:42.272Z,70.70
2019-03-22T07:42:10.550Z,71.30
2019-03-22T07:44:38.833Z,71.20
2019-03-22T07:47:06.996Z,71.00
2019-03-22T07:49:35.916Z,71.20
2019-03-22T07:52:04.404Z,70.30
2019-03-22T07:54:32.368Z,70.10
2019-03-22T07:57:00.712Z,69.80
2019-03-22T07:59:28.995Z,69.40
2019-03-22T08:01:56.658Z,69.80
2019-03-22T08:04:25.749Z,69.90
2019-03-22T08:06:53.737Z,70.00
2019-03-22T08:09:21.252Z,69.80
2019-03-22T08:11:49.171Z,69.30
2019-03-22T08:14:18.011Z,69.20
2019-03-22T08:16:46.655Z,68.80
2019-03-22T08:19:14.731Z,68.40
2019-03-22T08:21:42.763Z,68.40
2019-03-22T08:24:11.483Z,67.60
2019-03-22T08:26:39.087Z,67.70
2019-03-22T08:29:06.988Z,67.70
2019-03-22T08:31:36.867Z,67.80
2019-03-22T08:34:05.199Z,67.20
2019-03-22T08:36:34.619Z,67.00
2019-03-22T08:39:04.447Z,66.50
2019-03-22T08:41:32.365Z,66.40
2019-03-22T08:44:02.849Z,66.20
2019-03-22T08:46:30.988Z,65.50
2019-03-22T08:49:00.501Z,65.10
2019-03-22T08:51:30.023Z,64.90
2019-03-22T08:53:59.523Z,64.90
2019-03-22T08:56:27.796Z,65.10
2019-03-22T08:58:55.885Z,64.70
2019-03-22T09:01:24.856Z,64.60
2019-03-22T09:03:52.731Z,64.30
2019-03-22T09:06:20.680Z,63.60
2019-03-22T09:08:50.195Z,63.80
2019-03-22T09:11:19.543Z,63.70
2019-03-22T09:13:48.099Z,63.40
2019-03-22T09:16:15.876Z,63.40
2019-03-22T09:18:43.875Z,63.10
2019-03-22T09:21:13.236Z,63.70
2019-03-22T09:23:40.960Z,63.40
2019-03-22T09:26:09.064Z,63.20
2019-03-22T09:28:36.679Z,63.20
2019-03-22T09:31:10.127Z,63.50
2019-03-22T09:33:33.612Z,63.10
2019-03-22T09:36:01.863Z,62.50
2019-03-22T09:38:29.427Z,62.70
2019-03-22T09:40:57.159Z,62.60
2019-03-22T09:43:26.344Z,62.20
2019-03-22T09:45:55.065Z,62.50
2019-03-22T09:48:22.653Z,62.80
2019-03-22T09:50:50.394Z,62.60
2019-03-22T09:53:18.345Z,62.30
2019-03-22T09:55:48.095Z,62.10
2019-03-22T09:58:15.585Z,61.90
2019-03-22T10:00:43.727Z,60.80
2019-03-22T10:03:11.259Z,59.60
2019-03-22T10:05:39.826Z,58.70
2019-03-22T10:08:09.211Z,58.30
2019-03-22T10:10:37.713Z,57.60
2019-03-22T10:13:05.441Z,56.70
2019-03-22T10:15:33.615Z,56.10
2019-03-22T10:18:03.656Z,56.50
2019-03-22T10:20:31.263Z,55.90
2019-03-22T10:22:59.318Z,56.00
2019-03-22T10:25:27.270Z,56.00
2019-03-22T10:27:55.581Z,55.60
2019-03-22T10:30:23.742Z,55.20
2019-03-22T10:32:51.879Z,54.90
2019-03-22T10:35:25.940Z,54.10
2019-03-22T10:37:49.541Z,54.50
2019-03-22T10:40:17.512Z,54.50
2019-03-22T10:42:45.013Z,54.50
2019-03-22T10:45:12.607Z,54.50
2019-03-22T10:47:42.095Z,54.10
2019-03-22T10:50:10.798Z,54.20
2019-03-22T10:52:38.641Z,54.40
2019-03-22T10:55:23.037Z,54.60
2019-03-22T10:57:39.982Z,54.90
2019-03-22T11:00:07.119Z,55.10
2019-03-22T11:02:35.562Z,55.10
2019-03-22T11:05:06.370Z,55.10
2019-03-22T11:07:34.929Z,55.00
2019-03-22T11:10:04.743Z,54.90
2019-03-22T11:12:32.159Z,54.80
2019-03-22T11:14:59.888Z,54.50
2019-03-22T11:17:27.416Z,54.40
2019-03-22T11:19:57.552Z,54.70
2019-03-22T11:22:25.156Z,54.50
2019-03-22T11:24:53.627Z,54.30
2019-03-22T11:27:23.199Z,54.20
2019-03-22T11:29:50.795Z,54.20
2019-03-22T11:32:18.603Z,54.10
2019-03-22T11:34:46.271Z,53.80
2019-03-22T11:37:14.873Z,53.60
2019-03-22T11:39:43.816Z,53.40
2019-03-22T11:42:12.077Z,53.50
2019-03-22T11:44:41.135Z,53.50
2019-03-22T11:47:08.911Z,53.70
2019-03-22T11:49:38.176Z,53.80
2019-03-22T11:52:05.989Z,53.70
2019-03-22T11:54:33.735Z,53.60
2019-03-22T11:57:01.256Z,53.60
2019-03-22T11:59:30.375Z,53.00
2019-03-22T12:01:59.338Z,53.00
2019-03-22T12:04:28.555Z,53.00
2019-03-22T12:06:56.087Z,52.70
2019-03-22T12:09:24.731Z,52.60
2019-03-22T12:11:52.449Z,52.20
2019-03-22T12:14:20.400Z,52.80
2019-03-22T12:16:48.056Z,51.90
2019-03-22T12:19:15.696Z,52.20
2019-03-22T12:21:44.055Z,52.30
2019-03-22T12:24:11.575Z,52.20
2019-03-22T12:26:39.364Z,52.10
2019-03-22T12:29:06.896Z,51.80
2019-03-22T12:31:36.440Z,51.60
2019-03-22T12:34:04.407Z,51.60
2019-03-22T12:36:33.592Z,52.00
2019-03-22T12:39:02.403Z,52.20
2019-03-22T12:41:29.899Z,52.20
2019-03-22T12:43:58.207Z,51.70
2019-03-22T12:46:25.739Z,51.10
2019-03-22T12:48:55.264Z,50.60
2019-03-22T12:51:22.924Z,50.20
2019-03-22T12:53:52.364Z,50.20
2019-03-22T12:56:21.971Z,49.50
2019-03-22T12:58:50.752Z,49.70
2019-03-22T13:01:19.980Z,49.40
2019-03-22T13:03:48.047Z,49.60
2019-03-22T13:06:15.679Z,50.00
2019-03-22T13:08:43.256Z,49.90
2019-03-22T13:11:12.639Z,49.70
2019-03-22T13:13:41.671Z,49.90
2019-03-22T13:16:10.947Z,49.60
2019-03-22T13:18:49.638Z,49.90
2019-03-22T13:21:09.248Z,50.00
2019-03-22T13:23:36.867Z,50.00
2019-03-22T13:26:04.767Z,49.60
2019-03-22T13:28:32.712Z,49.50
2019-03-22T13:31:02.114Z,49.90
2019-03-22T13:33:30.191Z,50.00
2019-03-22T13:35:58.399Z,50.60
2019-03-22T13:38:26.424Z,49.70
2019-03-22T13:40:54.441Z,50.20
2019-03-22T13:43:24.320Z,49.90
2019-03-22T13:45:52.963Z,50.10
2019-03-22T13:48:21.280Z,49.90
2019-03-22T13:50:51.121Z,50.00
2019-03-22T13:53:19.231Z,50.30
2019-03-22T13:55:48.650Z,50.40
2019-03-22T13:58:16.924Z,50.60
2019-03-22T14:00:45.652Z,50.50
2019-03-22T14:03:13.153Z,50.20
2019-03-22T14:05:41.158Z,50.20
2019-03-22T14:08:11.203Z,50.20
2019-03-22T14:10:40.725Z,50.50
2019-03-22T14:13:08.530Z,50.60
2019-03-22T14:15:36.232Z,50.80
2019-03-22T14:18:04.461Z,50.70
2019-03-22T14:20:32.004Z,50.50
2019-03-22T14:23:01.086Z,50.30
2019-03-22T14:25:28.715Z,50.40
2019-03-22T14:27:56.295Z,50.20
2019-03-22T14:30:24.039Z,50.10
2019-03-22T14:32:51.695Z,50.00
2019-03-22T14:35:19.647Z,50.10
2019-03-22T14:37:48.400Z,50.20
2019-03-22T14:40:18.359Z,50.20
2019-03-22T14:42:46.733Z,50.40
2019-03-22T14:45:15.377Z,50.60
2019-03-22T14:47:43.355Z,50.60
2019-03-22T14:50:11.462Z,50.80
2019-03-22T14:52:39.139Z,50.90
2019-03-22T14:55:07.143Z,50.80
2019-03-22T14:57:35.258Z,50.60
2019-03-22T15:00:04.519Z,51.00
2019-03-22T15:02:32.087Z,51.50
2019-03-22T15:05:01.867Z,51.60
2019-03-22T15:07:31.283Z,51.50
2019-03-22T15:09:59.371Z,51.30
2019-03-22T15:12:27.338Z,51.30
2019-03-22T15:15:20.975Z,51.10
2019-03-22T15:18:03.712Z,51.30
2019-03-22T15:20:51.124Z,51.60
2019-03-22T15:23:39.031Z,51.50
2019-03-22T15:26:44.476Z,51.40
2019-03-22T15:29:50.673Z,51.40
2019-03-22T15:32:47.915Z,51.40
2019-03-22T15:35:26.975Z,51.50
2019-03-22T15:38:13.392Z,51.20
2019-03-22T15:40:41.094Z,51.40
2019-03-22T15:43:10.171Z,51.10
2019-03-22T15:45:37.903Z,51.20
2019-03-22T15:48:06.420Z,51.50
2019-03-22T15:50:34.215Z,52.00
2019-03-22T15:53:02.036Z,51.80
2019-03-22T15:55:29.947Z,51.60
2019-03-22T15:57:57.941Z,51.60
2019-03-22T16:00:26.088Z,51.50
2019-03-22T16:02:54.255Z,51.70
2019-03-22T16:05:21.927Z,51.60
2019-03-22T16:07:50.462Z,51.50
2019-03-22T16:10:19.065Z,52.00
2019-03-22T16:12:46.948Z,52.00
2019-03-22T16:15:15.858Z,52.00
2019-03-22T16:17:43.430Z,51.60
2019-03-22T16:20:12.101Z,51.60
2019-03-22T16:22:39.727Z,51.50
2019-03-22T16:25:07.855Z,51.40
2019-03-22T16:27:35.802Z,51.30
2019-03-22T16:30:06.347Z,51.20
2019-03-22T16:32:35.628Z,51.70
2019-03-22T16:35:05.003Z,52.00
2019-03-22T16:37:32.908Z,51.90
2019-03-22T16:40:01.921Z,51.70
2019-03-22T16:42:29.723Z,51.60
2019-03-22T16:44:57.233Z,52.00
2019-03-22T16:47:25.044Z,52.20
2019-03-22T16:49:53.059Z,52.00
2019-03-22T16:52:20.811Z,52.00
2019-03-22T16:54:48.987Z,52.10
2019-03-22T16:57:17.062Z,51.90
2019-03-22T16:59:46.011Z,52.10
2019-03-22T17:02:13.524Z,52.80
2019-03-22T17:04:42.857Z,52.80
2019-03-22T17:07:10.367Z,52.10
2019-03-22T17:09:39.463Z,51.70
2019-03-22T17:12:09.035Z,51.80
2019-03-22T17:14:37.263Z,52.10
2019-03-22T17:17:05.067Z,52.50
2019-03-22T17:19:32.483Z,52.90
2019-03-22T17:22:01.019Z,53.20
2019-03-22T17:24:28.555Z,53.30
2019-03-22T17:26:56.212Z,53.40
2019-03-22T17:29:24.661Z,54.00
2019-03-22T17:31:53.380Z,54.50
2019-03-22T17:34:22.236Z,55.40
2019-03-22T17:36:51.151Z,55.10
2019-03-22T17:39:18.819Z,55.50
2019-03-22T17:41:46.848Z,56.00
2019-03-22T17:44:14.469Z,56.50
2019-03-22T17:46:42.416Z,56.80
2019-03-22T17:49:10.639Z,56.70
2019-03-22T17:51:38.847Z,57.20
2019-03-22T17:54:06.235Z,57.30
2019-03-22T17:56:34.563Z,57.50
2019-03-22T17:59:02.515Z,57.50
2019-03-22T18:01:30.775Z,57.60
2019-03-22T18:03:58.787Z,57.50
2019-03-22T18:06:26.923Z,57.60
2019-03-22T18:08:55.895Z,57.70
2019-03-22T18:11:23.815Z,57.90
2019-03-22T18:13:51.667Z,57.90
2019-03-22T18:16:20.107Z,58.20
2019-03-22T18:18:47.854Z,58.20
2019-03-22T18:21:19.941Z,58.30
2019-03-22T18:23:48.967Z,58.40
2019-03-22T18:26:16.503Z,58.50
2019-03-22T18:28:44.961Z,58.30
2019-03-22T18:31:12.471Z,58.40
2019-03-22T18:33:41.281Z,58.40
2019-03-22T18:36:09.055Z,58.30
2019-03-22T18:38:36.772Z,58.20
2019-03-22T18:41:04.727Z,58.50
2019-03-22T18:43:32.946Z,58.70
2019-03-22T18:46:00.964Z,58.80
2019-03-22T18:48:29.524Z,59.00
2019-03-22T18:50:57.315Z,59.00
2019-03-22T18:53:24.816Z,59.00
2019-03-22T18:55:53.926Z,59.00
2019-03-22T18:58:23.789Z,59.20
2019-03-22T19:00:51.952Z,59.30
2019-03-22T19:03:20.492Z,59.20
2019-03-22T19:05:49.675Z,59.20
2019-03-22T19:08:17.531Z,59.00
2019-03-22T19:10:45.683Z,59.00
2019-03-22T19:13:15.952Z,58.80
2019-03-22T19:15:44.794Z,59.20
2019-03-22T19:18:12.567Z,59.10
2019-03-22T19:20:40.504Z,59.00
2019-03-22T19:23:08.047Z,59.20
2019-03-22T19:25:36.862Z,59.10
2019-03-22T19:28:04.459Z,59.20
2019-03-22T19:30:32.933Z,59.40
2019-03-22T19:33:00.527Z,59.40
2019-03-22T19:35:28.871Z,59.70
2019-03-22T19:37:58.087Z,59.60
2019-03-22T19:40:26.241Z,59.30
2019-03-22T19:42:54.440Z,59.20
2019-03-22T19:45:22.021Z,59.30
2019-03-22T19:47:50.731Z,59.30
2019-03-22T19:50:18.363Z,59.60
2019-03-22T19:52:46.896Z,59.80
2019-03-22T19:55:15.359Z,59.60
2019-03-22T19:57:43.781Z,59.40
2019-03-22T20:00:12.540Z,59.40
2019-03-22T20:02:40.619Z,59.50
2019-03-22T20:05:09.235Z,59.50
2019-03-22T20:07:37.288Z,59.60
2019-03-22T20:10:06.408Z,59.50
2019-03-22T20:12:34.089Z,59.40
2019-03-22T20:15:03.123Z,59.30
2019-03-22T20:17:30.667Z,59.60
2019-03-22T20:20:01.428Z,59.60
2019-03-22T20:22:29.719Z,59.60
2019-03-22T20:24:58.077Z,59.50
2019-03-22T20:27:25.732Z,59.40
2019-03-22T20:29:53.952Z,59.60
2019-03-22T20:32:21.431Z,59.70
2019-03-22T20:34:50.002Z,59.60
2019-03-22T20:37:17.671Z,60.20
2019-03-22T20:39:45.201Z,59.60
2019-03-22T20:42:12.834Z,59.60
2019-03-22T20:44:40.500Z,59.60
2019-03-22T20:47:08.363Z,59.70
2019-03-22T20:49:37.912Z,59.90
2019-03-22T20:52:06.205Z,59.80
2019-03-22T20:54:34.956Z,59.80
2019-03-22T20:57:03.346Z,59.80
2019-03-22T20:59:31.333Z,59.80
2019-03-22T21:01:59.080Z,59.80
2019-03-22T21:04:28.443Z,60.30
2019-03-22T21:06:56.368Z,60.20
2019-03-22T21:09:24.303Z,60.00
2019-03-22T21:11:52.472Z,60.20
2019-03-22T21:14:20.710Z,60.20
2019-03-22T21:16:49.638Z,60.20
2019-03-22T21:19:17.873Z,60.30
2019-03-22T21:21:46.335Z,60.40
2019-03-22T21:24:15.307Z,60.80
2019-03-22T21:26:43.172Z,60.50
2019-03-22T21:29:10.932Z,60.60
2019-03-22T21:31:39.127Z,60.50
2019-03-22T21:34:07.176Z,60.70
2019-03-22T21:36:35.352Z,60.90
2019-03-22T21:39:06.004Z,61.00
2019-03-22T21:41:33.501Z,61.00
2019-03-22T21:44:02.273Z,61.10
2019-03-22T21:46:30.231Z,60.60
2019-03-22T21:48:57.931Z,60.70
2019-03-22T21:51:26.984Z,60.70
2019-03-22T21:53:54.898Z,60.80
2019-03-22T21:56:22.455Z,60.90
2019-03-22T21:58:50.219Z,60.90
2019-03-22T22:01:17.943Z,61.00
2019-03-22T22:03:46.487Z,60.80
2019-03-22T22:06:16.211Z,61.00
2019-03-22T22:08:44.363Z,61.00
2019-03-22T22:11:13.819Z,61.10
2019-03-22T22:13:42.912Z,61.00
2019-03-22T22:16:12.183Z,61.00
2019-03-22T22:18:41.012Z,61.10
2019-03-22T22:21:08.900Z,61.00
2019-03-22T22:23:36.887Z,61.10
2019-03-22T22:26:05.004Z,61.20
2019-03-22T22:28:32.556Z,61.20
2019-03-22T22:31:00.008Z,61.50
2019-03-22T22:33:29.431Z,61.60
2019-03-22T22:35:58.917Z,61.70
2019-03-22T22:38:26.795Z,61.80
2019-03-22T22:40:54.555Z,61.70
2019-03-22T22:43:22.703Z,62.00
2019-03-22T22:45:51.128Z,62.30
2019-03-22T22:48:18.503Z,62.30
2019-03-22T22:50:46.294Z,62.40
2019-03-22T22:53:15.659Z,62.70
2019-03-22T22:55:44.056Z,62.90
2019-03-22T22:58:13.735Z,63.10
2019-03-22T23:00:42.179Z,63.30
2019-03-22T23:03:09.907Z,63.90
2019-03-22T23:05:38.807Z,63.50
2019-03-22T23:08:06.999Z,63.00
2019-03-22T23:10:35.239Z,62.80
2019-03-22T23:13:04.576Z,63.00
2019-03-22T23:15:34.391Z,63.10
2019-03-22T23:18:02.107Z,63.50
2019-03-22T23:20:29.879Z,63.10
2019-03-22T23:22:57.579Z,62.90
2019-03-22T23:25:26.327Z,63.00
2019-03-22T23:27:55.611Z,63.00
2019-03-22T23:30:23.672Z,63.70
2019-03-22T23:32:51.917Z,63.40
2019-03-22T23:35:20.293Z,63.20
2019-03-22T23:37:48.548Z,63.40
2019-03-22T23:40:16.435Z,63.80
2019-03-22T23:42:44.607Z,64.00
2019-03-22T23:45:14.188Z,63.90
2019-03-22T23:47:43.663Z,63.70
2019-03-22T23:50:13.254Z,63.50
2019-03-22T23:52:40.671Z,63.60
2019-03-22T23:55:10.504Z,63.80
2019-03-22T23:57:38.151Z,63.80
